Tiempo atmosférico en la estación meteorológica de Benabarre, Huesca (765 m.)



Fecha
DESCASC
Temp. máxima en grados centígrados (hora)
DESCASC
Temp. mínima en grados centígrados (hora)
DESCASC
Temp. media en grados centígrados
DESCASC
Racha de viento máxima en m/sg (hora)
DESCASC
Velocidad máxima media en intervalos de 10 minutos(hora)
DESCASC
Precipitaciones diarias en mm
DESCASC
Precipitaciones de 00:00 a 06:00 en mm
DESCASC
Precipitaciones de 06:00 a 12:00 en mm
DESCASC
Precipitaciones de 12:00 a 18:00 en mm
DESCASC
Precipitaciones de 18:00 a 24:00 en mm
DESCASC
18-01-2018 9 (13:40) -1.3 (05:40) 3.9 5 (17:00) 3.61 (17:00) 0 0 0 0 0
17-01-2018 12.2 (13:50) 1 (23:30) 6.6 13.06 (04:30) 8.06 (05:00) 0 0 0 0 0
16-01-2018 12 (16:50) -0.6 (07:00) 5.7 9.17 (23:40) 5 (22:20) 0 0 0 0 0
15-01-2018 6.1 (14:00) -2.7 (06:50) 1.7 6.11 (15:40) 4.17 (15:40) 0 0 0 0 0
14-01-2018 5.5 (16:10) -0.6 (-00:0) 2.4 5.83 (14:40) 3.89 (08:50) 2.4 2.2 0.2 0 0
13-01-2018 6 (13:10) -1.5 (-00:0) 2.3 7.78 (16:50) 6.11 (16:50) 0 0 0 0 0
12-01-2018 9 (14:50) -2.5 (-00:0) 3.3 5.28 (11:30) 3.89 (11:30) 0 0 0 0 0
11-01-2018 -- (--) -- (--) -- -- (--) -- (--) -- 0.2 -- -- 0
10-01-2018 8.1 (16:10) -1.5 (-00:0) 3.3 7.78 (15:10) 4.72 (15:10) 2 0 0 0 2
09-01-2018 5.8 (16:10) -3.1 (-00:0) 1.4 5.56 (13:40) 3.89 (15:10) 0 0 0 0 0
08-01-2018 7.9 (14:40) -0.7 (-00:0) 3.6 5.56 (15:30) 4.17 (17:20) 0 0 0 0 0
07-01-2018 7.7 (00:00) 1.7 (00:00) 4.7 12.22 (10:20) 7.78 (13:00) 19.2 15.6 3.6 0 0
06-01-2018 10.1 (22:30) 5.4 (00:00) 7.8 20.56 (21:50) 12.22 (21:50) 2.4 0 0 0 2.4
05-01-2018 12.1 (14:30) 2.9 (00:00) 7.5 7.78 (14:50) 5.28 (14:40) 0 0 0 0 0
04-01-2018 15.6 (15:10) 7.7 (22:50) 11.7 11.67 (15:50) 6.94 (15:50) 0 0 0 0 0
03-01-2018 17.2 (14:40) 4.6 (00:00) 10.9 13.33 (17:00) 8.61 (17:00) 0 0 0 0 0
02-01-2018 12.7 (16:30) 0.9 (00:00) 6.8 10.83 (15:00) 6.11 (15:00) 0 0 0 0 0
01-01-2018 7.5 (14:20) 1.7 (00:00) 4.6 11.67 (00:30) 6.94 (00:30) 1.4 0 0 0 1.4
31-12-2017 9.5 (13:10) 2 (00:00) 5.8 11.11 (22:30) 6.11 (23:50) 0.8 0 0 0 0.8
30-12-2017 15.5 (16:30) 2.1 (00:00) 8.8 5.56 (13:10) 4.17 (04:20) 0 0 0 0 0
29-12-2017 9.6 (16:20) -0.8 (-00:0) 4.4 6.67 (21:40) 5.28 (21:40) 0.8 0 0.8 0 0
28-12-2017 4.7 (12:20) -1.7 (-00:0) 1.5 6.94 (22:20) 5.28 (22:30) 0.4 0 0 0.4 0
27-12-2017 6.2 (13:50) -1 (-00:0) 2.6 16.94 (14:40) 10.28 (14:40) 8 7 0.8 0.2 0
26-12-2017 6.2 (13:00) 2.1 (00:00) 4.1 7.22 (15:40) 4.17 (16:10) 0.2 0 0 0 0.2
25-12-2017 11.2 (13:30) -0.4 (00:00) 5.4 6.39 (13:50) 3.89 (15:10) 0 0 0 0 0
24-12-2017 11.3 (15:00) -0.6 (-00:0) 5.4 6.67 (13:40) 4.44 (13:20) 0 0 0 0 0

Gráficas

Temp. máximas Temp. mínimas Temp. medias Precipitaciones Rachas de viento máximas Velocidades máximas media en intervalos de 10 minutos

Datos horarios

Fecha y hora oficial Temperatura (ºC) Velocidad del viento (km/h) Dirección del viento Racha (km/h) Dirección de racha Precipitación (mm) Presión (hPa) Tendencia (hPa) Humedad (%)
2018-01-22 23:00:00 7.2 10 Norte 18 Noroeste 0 -- -- 80
2018-01-22 22:00:00 6.6 12 Norte 19 Noroeste 0 -- -- 82
2018-01-22 21:00:00 6.3 10 Norte 13 Norte 0 -- -- 83
2018-01-22 20:00:00 7.3 8 Norte 12 Norte 0 -- -- 80
2018-01-22 19:00:00 8.7 6 Norte 11 Norte 0 -- -- 76
2018-01-22 18:00:00 12.9 4 Noroeste 8 Oeste 0 -- -- 64
2018-01-22 17:00:00 15.6 3 Oeste 13 Oeste 0 -- -- 57
2018-01-22 16:00:00 14.8 7 Oeste 18 Oeste 0 -- -- 60
2018-01-22 15:00:00 14 11 Oeste 17 Oeste 0 -- -- 60
2018-01-22 14:00:00 13.9 6 Oeste 14 Oeste 0 -- -- 59
2018-01-22 13:00:00 13.1 9 Oeste 13 Oeste 0 -- -- 58
2018-01-22 12:00:00 13 8 Sudeste 11 Sudeste 0 -- -- 63
2018-01-22 11:00:00 10.8 4 Oeste 8 Oeste 0 -- -- 68
2018-01-22 10:00:00 8.1 3 Sudeste 11 Norte 0 -- -- 80
2018-01-22 09:00:00 3.2 7 Norte 10 Noroeste 0 -- -- 89
2018-01-22 08:00:00 3.4 8 Noroeste 12 Noroeste 0 -- -- 87
2018-01-22 07:00:00 4.1 8 Noroeste 13 Noroeste 0 -- -- 89
2018-01-22 06:00:00 4.8 6 Norte 12 Nordeste 0 -- -- 86
2018-01-22 05:00:00 5.9 4 Norte 15 Oeste 0 -- -- 84
2018-01-22 04:00:00 7.1 14 Noroeste 19 Noroeste 0 -- -- 82
2018-01-22 03:00:00 5.1 7 Noroeste 12 Norte 0 -- -- 88
2018-01-22 02:00:00 5.9 7 Norte 11 Norte 0 -- -- 82
2018-01-22 01:00:00 6.5 9 Norte 13 Noroeste 0 -- -- 81
2018-01-22 00:00:00 9.2 5 Oeste 15 Noroeste 0 -- -- 72
2018-01-21 23:00:00 9.9 6 Noroeste 22 Noroeste 0 -- -- 70
2018-01-21 22:00:00 10 9 Noroeste 21 Oeste 0 -- -- 70
2018-01-21 21:00:00 11.4 18 Noroeste 23 Oeste 0 -- -- 66
2018-01-21 20:00:00 12.5 15 Noroeste 31 Noroeste 0 -- -- 62
2018-01-21 19:00:00 14.1 17 Noroeste 23 Oeste 0 -- -- 57
2018-01-21 18:00:00 15.4 14 Noroeste 32 Noroeste 0 -- -- 54
2018-01-21 17:00:00 17 20 Noroeste 33 Noroeste 0 -- -- 51
2018-01-21 16:00:00 17.5 18 Oeste 34 Oeste 0 -- -- 51
2018-01-21 15:00:00 16.6 15 Oeste 30 Noroeste 0 -- -- 56
2018-01-21 14:00:00 15.9 17 Noroeste 32 Noroeste 0 -- -- 58
2018-01-21 13:00:00 14.6 14 Noroeste 24 Noroeste 0 -- -- 64
2018-01-21 12:00:00 13.1 15 Noroeste 26 Oeste 0 -- -- 70
2018-01-21 11:00:00 11.5 15 Noroeste 23 Noroeste 0 -- -- 75
2018-01-21 10:00:00 9.7 4 Sudoeste 19 Oeste 0 -- -- 81
2018-01-21 09:00:00 8.5 15 Noroeste 23 Noroeste 0 -- -- 85
2018-01-21 08:00:00 7.6 14 Noroeste 20 Noroeste 0 -- -- 86
2018-01-21 07:00:00 7.4 15 Noroeste 21 Noroeste 0 -- -- 85
2018-01-21 06:00:00 8.2 13 Noroeste 20 Noroeste 0 -- -- 82
2018-01-21 05:00:00 8.4 15 Oeste 26 Noroeste 0 -- -- 80
2018-01-21 04:00:00 7.9 17 Noroeste 25 Noroeste 0 -- -- 82
2018-01-21 03:00:00 8.5 20 Noroeste 29 Noroeste 0 -- -- 80
2018-01-21 02:00:00 7.8 17 Noroeste 25 Oeste 0 -- -- 83
2018-01-21 01:00:00 8 11 Noroeste 20 Noroeste 0 -- -- 83
2018-01-21 00:00:00 8 15 Noroeste 20 Noroeste 0 -- -- 83
2018-01-20 23:00:00 7.6 12 Noroeste 18 Noroeste 0 -- -- 84
2018-01-20 22:00:00 6.1 9 Norte 18 Noroeste 0 -- -- 85
2018-01-20 21:00:00 9.2 9 Noroeste 23 Oeste 0 -- -- 77
2018-01-20 20:00:00 9.6 14 Noroeste 38 Oeste 0 -- -- 74
2018-01-20 19:00:00 9.9 23 Oeste 48 Oeste 0 -- -- 73
2018-01-20 18:00:00 10.7 30 Oeste 45 Oeste 0 -- -- 68
2018-01-20 17:00:00 11.8 27 Noroeste 44 Oeste 0 -- -- 62
2018-01-20 16:00:00 12.2 20 Oeste 36 Oeste 0 -- -- 58
2018-01-20 15:00:00 12.1 21 Oeste 33 Oeste 0 -- -- 55
2018-01-20 14:00:00 10.7 19 Noroeste 32 Oeste 0 -- -- 57
2018-01-20 13:00:00 9.2 16 Oeste 30 Oeste 0 -- -- 58
2018-01-20 12:00:00 8.1 9 Oeste 16 Oeste 0 -- -- 63
2018-01-20 11:00:00 5.8 4 Sur 13 Oeste 0 -- -- 73
2018-01-20 10:00:00 2.9 0 Calma 9 Norte 0 -- -- 87
2018-01-20 09:00:00 0.3 4 Este 11 Norte 0 -- -- 89
2018-01-20 08:00:00 0.2 4 Norte 9 Noroeste 0 -- -- 89
2018-01-20 07:00:00 0.5 0 Calma 12 Norte 0 -- -- 85
2018-01-20 06:00:00 0 6 Noroeste 9 Norte 0 -- -- 88
2018-01-20 05:00:00 0.5 3 Norte 9 Norte 0 -- -- 85
2018-01-20 04:00:00 1.4 5 Norte 14 Norte 0 -- -- 86
2018-01-20 03:00:00 0.4 9 Noroeste 12 Norte 0 -- -- 87
2018-01-20 02:00:00 1.7 8 Noroeste 14 Oeste 0 -- -- 82
2018-01-20 01:00:00 1.3 6 Noroeste 11 Norte 0 -- -- 85
2018-01-20 00:00:00 3.8 5 Noroeste 17 Noroeste 0 -- -- 78
2018-01-19 23:00:00 1.4 6 Norte 12 Norte 0 -- -- 86
2018-01-19 22:00:00 1.8 9 Norte 14 Norte 0 -- -- 86
2018-01-19 21:00:00 3.5 3 Nordeste 12 Este 0 -- -- 83
2018-01-19 20:00:00 3.3 9 Norte 13 Noroeste 0 -- -- 82
2018-01-19 19:00:00 5.7 6 Norte 11 Este 0 -- -- 77
2018-01-19 18:00:00 9.1 2 Noroeste 16 Oeste 0 -- -- 66
2018-01-19 17:00:00 11.5 9 Oeste 18 Noroeste 0 -- -- 59
2018-01-19 16:00:00 12.2 12 Oeste 19 Oeste 0 -- -- 54
2018-01-19 15:00:00 11.6 6 Oeste 15 Oeste 0 -- -- 58
2018-01-19 14:00:00 10.8 6 Oeste 12 Oeste 0 -- -- 56
2018-01-19 13:00:00 9.2 5 Sudeste 15 Sudeste 0 -- -- 64
2018-01-19 12:00:00 8 5 Sudeste 9 Sudeste 0 -- -- 70
2018-01-19 11:00:00 5.1 3 Sur 9 Noroeste 0 -- -- 82
2018-01-19 10:00:00 1.7 2 Oeste 10 Norte 0 -- -- 91
2018-01-19 09:00:00 -0.4 6 Norte 12 Norte 0 -- -- 94
2018-01-19 08:00:00 -0.4 3 Norte 8 Norte 0 -- -- 94
2018-01-19 07:00:00 -0.3 8 Norte 10 Norte 0 -- -- 93
2018-01-19 06:00:00 0 7 Norte 11 Noroeste 0 -- -- 93
2018-01-19 05:00:00 0.3 8 Noroeste 13 Norte 0 -- -- 95
2018-01-19 04:00:00 0.5 3 Norte 9 Norte 0 -- -- 94
2018-01-19 03:00:00 0.6 4 Este 12 Norte 0 -- -- 92
2018-01-19 02:00:00 1.1 5 Noroeste 8 Norte 0 -- -- 92
2018-01-19 01:00:00 1.3 9 Norte 12 Norte 0 -- -- 91
2018-01-19 00:00:00 1.2 8 Norte 11 Norte 0 -- -- 90
2018-01-18 23:00:00 1.7 3 Norte 12 Noroeste 0 -- -- 89
2018-01-18 22:00:00 1.8 8 Norte 12 Norte 0 -- -- 87
2018-01-18 21:00:00 2 9 Norte 13 Norte 0 -- -- 86
2018-01-18 20:00:00 2.6 9 Norte 14 Norte 0 -- -- 82
2018-01-18 19:00:00 3.3 9 Norte 15 Noroeste 0 -- -- 79
2018-01-18 18:00:00 6.6 12 Noroeste 17 Oeste 0 -- -- 69
2018-01-18 17:00:00 8.4 13 Oeste 18 Oeste 0 -- -- 65
2018-01-18 16:00:00 8.3 12 Oeste 17 Oeste 0 -- -- 64
2018-01-18 15:00:00 8.4 11 Oeste 18 Oeste 0 -- -- 63
2018-01-18 14:00:00 8.6 8 Oeste 13 Noroeste 0 -- -- 61
2018-01-18 13:00:00 8.5 5 Sudoeste 10 Sur 0 -- -- 63
2018-01-18 12:00:00 7.1 3 Sur 12 Sur 0 -- -- 68
2018-01-18 11:00:00 4.3 5 Sudeste 10 Sudeste 0 -- -- 72
2018-01-18 10:00:00 1.6 2 Nordeste 11 Norte 0 -- -- 85
2018-01-18 09:00:00 -0.9 7 Norte 10 Norte 0 -- -- 92
2018-01-18 08:00:00 -0.1 9 Noroeste 13 Noroeste 0 -- -- 91
2018-01-18 07:00:00 -0.9 10 Norte 14 Norte 0 -- -- 90
2018-01-18 06:00:00 -1 3 Este 14 Norte 0 -- -- 90
2018-01-18 05:00:00 -0.2 3 Sudeste 10 Norte 0 -- -- 91
2018-01-18 04:00:00 -0.2 8 Norte 17 Norte 0 -- -- 89
2018-01-18 03:00:00 -0.4 5 Norte 10 Norte 0 -- -- 92
2018-01-18 02:00:00 0.3 3 Nordeste 11 Este 0 -- -- 90
2018-01-18 01:00:00 0.6 4 Este 12 Norte 0 -- -- 85
2018-01-18 00:00:00 1.1 5 Nordeste 9 Norte 0 -- -- 83
2018-01-17 23:00:00 1.1 6 Norte 11 Norte 0 -- -- 80
2018-01-17 22:00:00 1.6 10 Norte 12 Norte 0 -- -- 79
2018-01-17 21:00:00 3.2 9 Noroeste 12 Norte 0 -- -- 73
2018-01-17 20:00:00 4.7 6 Norte 16 Oeste 0 -- -- 69
2018-01-17 19:00:00 7.3 14 Noroeste 18 Noroeste 0 -- -- 60
2018-01-17 18:00:00 8.5 12 Noroeste 31 Noroeste 0 -- -- 56
2018-01-17 17:00:00 11 20 Noroeste 30 Oeste 0 -- -- 44
2018-01-17 16:00:00 11.8 22 Oeste 31 Noroeste 0 -- -- 44
2018-01-17 15:00:00 12 15 Oeste 29 Oeste 0 -- -- 51
2018-01-17 14:00:00 12.2 18 Oeste 30 Oeste 0 -- -- 49
2018-01-17 13:00:00 11.7 12 Oeste 21 Oeste 0 -- -- 49
2018-01-17 12:00:00 10.7 11 Oeste 20 Oeste 0 -- -- 51
2018-01-17 11:00:00 9.8 9 Sudoeste 28 Oeste 0 -- -- 55
2018-01-17 10:00:00 8.1 14 Oeste 32 Oeste 0 -- -- 61
2018-01-17 09:00:00 7.2 15 Noroeste 28 Oeste 0 -- -- 64
2018-01-17 08:00:00 7.5 20 Noroeste 36 Oeste 0 -- -- 66
2018-01-17 07:00:00 8.1 22 Noroeste 43 Oeste 0 -- -- 66
2018-01-17 06:00:00 8.9 21 Oeste 46 Oeste 0 -- -- 67
2018-01-17 05:00:00 9.4 29 Oeste 47 Oeste 0 -- -- 69
2018-01-17 04:00:00 8.8 17 Oeste 35 Oeste 0 -- -- 76
2018-01-17 03:00:00 9 21 Oeste 36 Oeste 0 -- -- 77
2018-01-17 02:00:00 8.8 13 Noroeste 36 Noroeste 0 -- -- 77
2018-01-17 01:00:00 9.4 13 Noroeste 29 Noroeste 0 -- -- 73
2018-01-17 00:00:00 8.9 10 Noroeste 33 Noroeste 0 -- -- 74
2018-01-16 23:00:00 8.7 16 Noroeste 30 Noroeste 0 -- -- 76
2018-01-16 22:00:00 7.2 14 Noroeste 23 Oeste 0 -- -- 87
2018-01-16 21:00:00 5.6 8 Noroeste 17 Oeste 0 -- -- 91
2018-01-16 20:00:00 7.3 10 Noroeste 19 Oeste 0 -- -- 90
2018-01-16 19:00:00 7.5 8 Noroeste 17 Oeste 0 -- -- 86
2018-01-16 18:00:00 9.8 9 Noroeste 24 Oeste 0 -- -- 80
2018-01-16 17:00:00 11.8 12 Noroeste 25 Noroeste 0 -- -- 72
2018-01-16 16:00:00 11.6 16 Oeste 24 Noroeste 0 -- -- 75
2018-01-16 15:00:00 11 10 Oeste 27 Noroeste 0 -- -- 76
2018-01-16 14:00:00 9.6 13 Noroeste 25 Noroeste 0 -- -- 81
2018-01-16 13:00:00 8.4 13 Noroeste 22 Noroeste 0 -- -- 81
2018-01-16 12:00:00 8.1 12 Oeste 19 Oeste 0 -- -- 79
2018-01-16 11:00:00 5.7 4 Sudeste 9 Sudeste 0 -- -- 87
2018-01-16 10:00:00 2.9 4 Este 9 Sudeste 0 -- -- 96
2018-01-16 09:00:00 0.3 2 Nordeste 9 Norte 0 -- -- 98
2018-01-16 08:00:00 -0.2 5 Norte 11 Norte 0 -- -- 98
2018-01-16 07:00:00 -0.6 9 Norte 13 Norte 0 -- -- 97
2018-01-16 06:00:00 -0.2 4 Norte 8 Norte 0 -- -- 98
2018-01-16 05:00:00 -0.3 4 Noroeste 11 Noroeste 0 -- -- 98
2018-01-16 04:00:00 0 3 Norte 9 Noroeste 0 -- -- 97
2018-01-16 03:00:00 1 6 Oeste 8 Oeste 0 -- -- 97
2018-01-16 02:00:00 0.5 4 Noroeste 6 Noroeste 0 -- -- 97
2018-01-16 01:00:00 0.8 3 Noroeste 12 Noroeste 0 -- -- 95
2018-01-16 00:00:00 1.9 11 Noroeste 13 Noroeste 0 -- -- 98
2018-01-15 23:00:00 2.4 9 Noroeste 13 Noroeste 0 -- -- 95
2018-01-15 22:00:00 2.3 10 Noroeste 19 Noroeste 0 -- -- 97
2018-01-15 21:00:00 2.7 14 Noroeste 20 Noroeste 0 -- -- 97
2018-01-15 20:00:00 2.9 9 Noroeste 15 Oeste 0 -- -- 96
2018-01-15 19:00:00 3.2 7 Noroeste 13 Oeste 0 -- -- 94
2018-01-15 18:00:00 3 9 Noroeste 14 Noroeste 0 -- -- 91
2018-01-15 17:00:00 3.3 9 Noroeste 21 Noroeste 0 -- -- 89
2018-01-15 16:00:00 3.6 14 Oeste 22 Noroeste 0 -- -- 88
2018-01-15 15:00:00 5.7 9 Oeste 17 Oeste 0 -- -- 75
2018-01-15 14:00:00 6.1 7 Oeste 13 Oeste 0 -- -- 74
2018-01-15 13:00:00 4.9 6 Sur 13 Sudoeste 0 -- -- 83
2018-01-15 12:00:00 4.7 5 Oeste 9 Sudoeste 0 -- -- 83
2018-01-15 11:00:00 2.4 4 Sudoeste 7 Oeste 0 -- -- 98
2018-01-15 10:00:00 0 0 Calma 7 Norte 0 -- -- 100
2018-01-15 09:00:00 -2.2 2 Oeste 6 Sudoeste 0 -- -- 98
2018-01-15 08:00:00 -2.3 2 Sudeste 6 Norte 0 -- -- 97
2018-01-15 07:00:00 -2.5 2 Nordeste 6 Norte 0 -- -- 97
2018-01-15 06:00:00 -1.8 2 Sudoeste 8 Noroeste 0 -- -- 97
2018-01-15 05:00:00 -1.6 9 Norte 11 Norte 0 -- -- 97
2018-01-15 04:00:00 -1.4 2 Nordeste 10 Norte 0 -- -- 96
2018-01-15 03:00:00 -1.1 7 Norte 10 Norte 0 -- -- 96
2018-01-15 02:00:00 -0.9 7 Norte 13 Norte 0 -- -- 96
2018-01-15 01:00:00 -0.8 6 Norte 10 Norte 0 -- -- 98
2018-01-15 00:00:00 -0.6 3 Norte 9 Norte 0 -- -- 97
2018-01-14 23:00:00 -0.3 4 Norte 10 Norte 0 -- -- 97
2018-01-14 22:00:00 -0.6 7 Norte 9 Norte 0 -- -- 97
2018-01-14 21:00:00 -0.4 3 Nordeste 9 Norte 0 -- -- 95
2018-01-14 20:00:00 -0.1 7 Norte 10 Noroeste 0 -- -- 94
2018-01-14 19:00:00 2 6 Noroeste 15 Noroeste 0 -- -- 91
2018-01-14 18:00:00 3.1 11 Noroeste 15 Noroeste 0 -- -- 90
2018-01-14 17:00:00 4.4 9 Noroeste 17 Oeste 0 -- -- 83
2018-01-14 16:00:00 5.4 12 Oeste 18 Oeste 0 -- -- 80
2018-01-14 15:00:00 4.9 11 Oeste 21 Oeste 0 -- -- 82
2018-01-14 14:00:00 4.5 10 Oeste 15 Oeste 0 -- -- 82
2018-01-14 13:00:00 4.3 7 Oeste 12 Oeste 0 -- -- 86
2018-01-14 12:00:00 4 6 Oeste 13 Oeste 0 -- -- 90
2018-01-14 11:00:00 3.2 9 Oeste 14 Noroeste 0 -- -- 99
2018-01-14 10:00:00 1.8 3 Noroeste 13 Noroeste 0 -- -- 99
2018-01-14 09:00:00 1.2 9 Noroeste 19 Oeste 0 -- -- 99
2018-01-14 08:00:00 1.3 8 Noroeste 17 Noroeste 0 -- -- 99
2018-01-14 07:00:00 1.6 11 Noroeste 18 Noroeste 0.2 -- -- 98
2018-01-14 06:00:00 1.8 9 Oeste 13 Noroeste 1 -- -- 98
2018-01-14 05:00:00 2 11 Noroeste 19 Noroeste 0.4 -- -- 98
2018-01-14 04:00:00 2.2 10 Noroeste 14 Noroeste 0 -- -- 96
2018-01-14 03:00:00 2.5 10 Noroeste 14 Noroeste 0.6 -- -- 94
2018-01-14 02:00:00 3.5 3 Sudoeste 14 Nordeste 0.2 -- -- 89
2018-01-14 01:00:00 3.8 10 Nordeste 13 Nordeste 0 -- -- 85
2018-01-14 00:00:00 4.1 9 Nordeste 16 Este 0 -- -- 84
2018-01-13 23:00:00 3.9 9 Este 13 Nordeste 0 -- -- 77
2018-01-13 22:00:00 4.4 8 Nordeste 25 Nordeste 0 -- -- 72
2018-01-13 21:00:00 4.7 15 Nordeste 24 Este 0 -- -- 74
2018-01-13 20:00:00 4.5 14 Nordeste 20 Nordeste 0 -- -- 75
2018-01-13 19:00:00 4 8 Este 20 Nordeste 0 -- -- 74
2018-01-13 18:00:00 4.7 16 Este 24 Este 0 -- -- 71
2018-01-13 17:00:00 5.4 15 Este 28 Este 0 -- -- 68
2018-01-13 16:00:00 5.5 10 Este 26 Nordeste 0 -- -- 63
2018-01-13 15:00:00 5.7 13 Este 20 Este 0 -- -- 65
2018-01-13 14:00:00 5.6 15 Este 26 Este 0 -- -- 63
2018-01-13 13:00:00 5.6 14 Este 19 Este 0 -- -- 62
2018-01-13 12:00:00 5.1 11 Sudeste 22 Este 0 -- -- 54
2018-01-13 11:00:00 3.6 16 Este 24 Este 0 -- -- 49
2018-01-13 10:00:00 1.7 8 Este 18 Este 0 -- -- 60
2018-01-13 09:00:00 1.2 15 Nordeste 24 Nordeste 0 -- -- 57
2018-01-13 08:00:00 0.3 14 Este 22 Nordeste 0 -- -- 60
2018-01-13 07:00:00 0.2 15 Este 24 Este 0 -- -- 62
2018-01-13 06:00:00 -1.4 5 Sudeste 9 Este 0 -- -- 72
2018-01-13 05:00:00 -0.2 5 Este 17 Nordeste 0 -- -- 67
2018-01-13 04:00:00 0.8 11 Nordeste 18 Este 0 -- -- 62
2018-01-13 03:00:00 1.4 10 Este 26 Nordeste 0 -- -- 61
2018-01-13 02:00:00 1.1 5 Este 18 Nordeste 0 -- -- 68
2018-01-13 01:00:00 1 6 Este 13 Este 0 -- -- 69
2018-01-13 00:00:00 -0.5 6 Norte 11 Norte 0 -- -- 81
2018-01-12 23:00:00 -0.4 3 Nordeste 15 Norte 0 -- -- 81
2018-01-12 22:00:00 -0.6 10 Norte 15 Norte 0 -- -- 83
2018-01-12 21:00:00 -0.1 11 Norte 16 Norte 0 -- -- 80
2018-01-12 20:00:00 0.3 6 Norte 10 Nordeste 0 -- -- 83
2018-01-12 19:00:00 1.3 6 Norte 11 Norte 0 -- -- 79
2018-01-12 18:00:00 5.1 2 Nordeste 10 Este 0 -- -- 67
2018-01-12 17:00:00 8.1 4 Sudoeste 12 Oeste 0 -- -- 56
2018-01-12 16:00:00 7.6 9 Oeste 17 Oeste 0 -- -- 57
2018-01-12 15:00:00 9 7 Sur 14 Sudoeste 0 -- -- 45
2018-01-12 14:00:00 8.6 5 Sudeste 14 Oeste 0 -- -- 45
2018-01-12 13:00:00 5.5 11 Oeste 15 Oeste 0 -- -- 55
2018-01-12 12:00:00 3.8 8 Oeste 19 Noroeste 0 -- -- 64
2018-01-12 11:00:00 4.2 4 Sudoeste 9 Sudoeste 0 -- -- 68
2018-01-12 10:00:00 1.2 8 Noroeste 15 Noroeste 0 -- -- 76
2018-01-12 09:00:00 -1.9 7 Norte 16 Norte 0 -- -- 82
2018-01-12 08:00:00 -2.4 9 Norte 14 Norte 0 -- -- 85
2018-01-12 07:00:00 -2 8 Norte 12 Norte 0 -- -- 86
2018-01-12 06:00:00 -1.8 5 Norte 11 Norte 0 -- -- 84
2018-01-12 05:00:00 -0.8 3 Norte 14 Noroeste 0 -- -- 87
2018-01-12 04:00:00 -1 9 Noroeste 12 Norte 0 -- -- 85
2018-01-12 03:00:00 -1.2 9 Norte 17 Norte 0 -- -- 85
2018-01-12 02:00:00 0.1 8 Noroeste 17 Oeste 0 -- -- 88
2018-01-12 01:00:00 -0.7 9 Noroeste 13 Noroeste 0 -- -- 91
2018-01-12 00:00:00 0.2 7 Norte 17 Oeste 0 -- -- 85
2018-01-11 23:00:00 -0.5 7 Noroeste 12 Oeste 0 -- -- 88
2018-01-11 22:00:00 1.1 3 Norte 15 Noroeste 0 -- -- 85
2018-01-11 21:00:00 2.3 14 Noroeste 22 Noroeste 0 -- -- 80
2018-01-11 20:00:00 2.2 8 Noroeste 21 Noroeste 0 -- -- 80
2018-01-11 19:00:00 3.4 15 Noroeste 22 Noroeste 0 -- -- 75
2018-01-11 18:00:00 4.6 18 Noroeste 30 Noroeste 0 -- -- 70
2018-01-11 17:00:00 6.5 22 Oeste 36 Oeste 0 -- -- 65
2018-01-11 16:00:00 7.7 21 Oeste 29 Oeste 0 -- -- 58
2018-01-11 15:00:00 7.2 21 Oeste 33 Oeste -- -- -- 60
2018-01-11 14:00:00 6.6 20 Oeste -- -- -- -- -- 64
2018-01-11 13:00:00 -- -- -- -- -- -- -- -- --
2018-01-11 12:00:00 -- -- -- -- -- -- -- -- --
2018-01-11 11:00:00 3.4 7 Noroeste 31 Oeste 0 -- -- 78
2018-01-11 10:00:00 1.9 18 Noroeste 33 Noroeste 0 -- -- 82
2018-01-11 09:00:00 1.7 20 Noroeste 33 Oeste 0 -- -- 80
2018-01-11 08:00:00 1.2 18 Noroeste 26 Oeste 0 -- -- 82
2018-01-11 07:00:00 0.9 19 Noroeste 23 Noroeste 0 -- -- 83
2018-01-11 06:00:00 1 15 Noroeste 22 Noroeste 0 -- -- 85
2018-01-11 05:00:00 0.9 14 Noroeste 24 Noroeste 0 -- -- 90
2018-01-11 04:00:00 1.1 13 Noroeste 25 Noroeste 0 -- -- 92
2018-01-11 03:00:00 1.8 20 Noroeste 26 Oeste 0.2 -- -- 90
2018-01-11 02:00:00 2.2 19 Noroeste 28 Oeste 0 -- -- 91
2018-01-11 01:00:00 3 16 Oeste 24 Oeste 0 -- -- 97
2018-01-11 00:00:00 3.2 8 Noroeste 13 Oeste 0 -- -- 98
2018-01-10 23:00:00 3.6 5 Oeste 11 Noroeste 0 -- -- 98
2018-01-10 22:00:00 3.7 6 Noroeste 12 Noroeste 1.2 -- -- 96
2018-01-10 21:00:00 4 8 Noroeste 13 Oeste 0.8 -- -- 93
2018-01-10 20:00:00 4.5 8 Noroeste 13 Noroeste 0 -- -- 85
2018-01-10 19:00:00 4.7 8 Noroeste 21 Oeste 0 -- -- 83
2018-01-10 18:00:00 5.1 14 Oeste 26 Oeste 0 -- -- 80
2018-01-10 17:00:00 6 14 Oeste 28 Oeste 0 -- -- 79
2018-01-10 16:00:00 7.6 16 Oeste 28 Noroeste 0 -- -- 75
2018-01-10 15:00:00 7.4 15 Noroeste 23 Noroeste 0 -- -- 71
2018-01-10 14:00:00 7.6 13 Oeste 20 Oeste 0 -- -- 69
2018-01-10 13:00:00 6 10 Noroeste 15 Noroeste 0 -- -- 72
2018-01-10 12:00:00 4.2 12 Noroeste 18 Noroeste 0 -- -- 79
2018-01-10 11:00:00 3.3 10 Oeste 13 Oeste 0 -- -- 83
2018-01-10 10:00:00 2 4 Oeste 10 Norte 0 -- -- 90
2018-01-10 09:00:00 -0.9 7 Norte 11 Norte 0 -- -- 96
2018-01-10 08:00:00 -1.2 7 Norte 9 Norte 0 -- -- 95
2018-01-10 07:00:00 -0.6 4 Oeste 9 Norte 0 -- -- 97
2018-01-10 06:00:00 -0.8 7 Norte 10 Noroeste 0 -- -- 95
2018-01-10 05:00:00 -0.8 7 Norte 9 Norte 0 -- -- 93
2018-01-10 04:00:00 -0.1 6 Norte 8 Norte 0 -- -- 93
2018-01-10 03:00:00 1.4 2 Noroeste 9 Noroeste 0 -- -- 91
2018-01-10 02:00:00 2.1 6 Noroeste 9 Noroeste 0 -- -- 86
2018-01-10 01:00:00 1.9 5 Norte 12 Oeste 0 -- -- 89
2018-01-10 00:00:00 2 5 Noroeste 14 Noroeste 0 -- -- 89
2018-01-09 23:00:00 2.3 8 Noroeste 18 Noroeste 0 -- -- 85
2018-01-09 22:00:00 2.8 10 Noroeste 14 Noroeste 0 -- -- 78
2018-01-09 21:00:00 2 4 Noroeste 8 Noroeste 0 -- -- 81
2018-01-09 20:00:00 1.8 0 Calma 13 Noroeste 0 -- -- 82
2018-01-09 19:00:00 1.9 7 Noroeste 15 Noroeste 0 -- -- 83
2018-01-09 18:00:00 3.5 10 Noroeste 19 Oeste 0 -- -- 77
2018-01-09 17:00:00 4.7 12 Oeste 18 Oeste 0 -- -- 72
2018-01-09 16:00:00 5.5 10 Oeste 20 Oeste 0 -- -- 69
2018-01-09 15:00:00 5.4 12 Noroeste 18 Noroeste 0 -- -- 68
2018-01-09 14:00:00 4 13 Noroeste 20 Noroeste 0 -- -- 90
2018-01-09 13:00:00 3.1 2 Sudoeste 6 Sudeste 0 -- -- 98
2018-01-09 12:00:00 0 4 Sudeste 8 Sudeste 0 -- -- 99
2018-01-09 11:00:00 -1.3 5 Este 9 Este 0 -- -- 100
2018-01-09 10:00:00 -2.1 5 Sudeste 8 Este 0 -- -- 99
2018-01-09 09:00:00 -2.5 5 Oeste 6 Oeste 0 -- -- 99
2018-01-09 08:00:00 -2.5 3 Norte 8 Noroeste 0 -- -- 99
2018-01-09 07:00:00 -1.5 5 Noroeste 11 Noroeste 0 -- -- 100
2018-01-09 06:00:00 -1.4 5 Norte 8 Norte 0 -- -- 100
2018-01-09 05:00:00 -0.8 3 Norte 14 Oeste 0 -- -- 100
2018-01-09 04:00:00 -0.9 8 Noroeste 11 Noroeste 0 -- -- 100
2018-01-09 03:00:00 -0.4 3 Sudoeste 12 Noroeste 0 -- -- 100
2018-01-09 02:00:00 -0.4 5 Noroeste 12 Noroeste 0 -- -- 100
2018-01-09 01:00:00 -0.5 6 Noroeste 10 Noroeste 0 -- -- 100
2018-01-09 00:00:00 -0.6 5 Norte 10 Norte 0 -- -- 100
2018-01-08 23:00:00 -0.3 2 Noroeste 6 Norte 0 -- -- 100
2018-01-08 22:00:00 0.6 2 Norte 10 Este 0 -- -- 100
2018-01-08 21:00:00 0.8 2 Noroeste 11 Este 0 -- -- 100
2018-01-08 20:00:00 1 6 Sudeste 14 Noroeste 0 -- -- 100
2018-01-08 19:00:00 1 7 Oeste 15 Oeste 0 -- -- 100
2018-01-08 18:00:00 1.4 7 Noroeste 19 Noroeste 0 -- -- 99
2018-01-08 17:00:00 2.2 6 Noroeste 14 Noroeste 0 -- -- 98
2018-01-08 16:00:00 2.6 9 Noroeste 20 Noroeste 0 -- -- 98
2018-01-08 15:00:00 5.6 12 Noroeste 17 Noroeste 0 -- -- 82
2018-01-08 14:00:00 6.4 6 Oeste 10 Oeste 0 -- -- 78
2018-01-08 13:00:00 4.2 5 Oeste 8 Oeste 0 -- -- 90
2018-01-08 12:00:00 2.2 6 Sudeste 8 Este 0 -- -- 94
2018-01-08 11:00:00 2.2 4 Sur 5 Sudeste 0 -- -- 97
2018-01-08 10:00:00 0.7 3 Sur 9 Sudeste 0 -- -- 99
2018-01-08 09:00:00 -0.2 6 Norte 14 Oeste 0 -- -- 100
2018-01-08 08:00:00 -0.5 9 Noroeste 11 Noroeste 0 -- -- 99
2018-01-08 07:00:00 0.2 7 Noroeste 14 Oeste 0 -- -- 98
2018-01-08 06:00:00 1.1 7 Noroeste 13 Norte 0 -- -- 98
2018-01-08 05:00:00 0.1 5 Nordeste 11 Nordeste 0 -- -- 96
2018-01-08 04:00:00 0 5 Este 8 Sudeste 0 -- -- 97
2018-01-08 03:00:00 0.3 3 Nordeste 8 Este 0 -- -- 98
2018-01-08 02:00:00 0.8 5 Norte 12 Norte 0 -- -- 98
2018-01-08 01:00:00 0.8 9 Norte 12 Norte 0 -- -- 97
2018-01-08 00:00:00 1.7 6 Norte 9 Norte 0 -- -- 97
2018-01-07 23:00:00 2.5 5 Noroeste 10 Noroeste 0 -- -- 97
2018-01-07 22:00:00 3.3 10 Noroeste 13 Noroeste 0 -- -- 95
2018-01-07 21:00:00 3.5 7 Norte 15 Noroeste 0 -- -- 93
2018-01-07 20:00:00 4.1 8 Nordeste 14 Nordeste 0 -- -- 87
2018-01-07 19:00:00 4.6 11 Nordeste 18 Este 0 -- -- 86
2018-01-07 18:00:00 4.6 10 Nordeste 14 Este 0 -- -- 89
2018-01-07 17:00:00 5.1 10 Este 19 Este 0 -- -- 89
2018-01-07 16:00:00 5.4 17 Este 28 Este 0 -- -- 87
2018-01-07 15:00:00 5.1 17 Este 33 Este 0 -- -- 90
2018-01-07 14:00:00 4.8 20 Este 35 Este 0 -- -- 93
2018-01-07 13:00:00 5.3 28 Este 39 Este 0 -- -- 91
2018-01-07 12:00:00 5 21 Este 35 Este 1.2 -- -- 94
2018-01-07 11:00:00 5.1 21 Este 44 Este 2 -- -- 93
2018-01-07 10:00:00 6.1 14 Sudeste 25 Nordeste 0.4 -- -- 93
2018-01-07 09:00:00 6.1 15 Este 29 Este 0 -- -- 93
2018-01-07 08:00:00 6.3 15 Este 33 Este 0 -- -- 91
2018-01-07 07:00:00 6.8 26 Este 40 Este 0 -- -- 87
2018-01-07 06:00:00 6.4 23 Este 35 Este 0 -- -- 93
2018-01-07 05:00:00 5.5 12 Sudeste 36 Sudeste 4.2 -- -- 97
2018-01-07 04:00:00 5.9 13 Sudeste 28 Sudeste 1.8 -- -- 97
2018-01-07 03:00:00 6.3 22 Este 37 Sudeste 1.2 -- -- 94
2018-01-07 02:00:00 6.1 21 Este 34 Este 1.2 -- -- 95
2018-01-07 01:00:00 6.3 14 Este 31 Sudeste 7.2 -- -- 96
2018-01-07 00:00:00 7.7 31 Sudeste 74 Este 2.4 -- -- 88
2018-01-06 23:00:00 9.4 30 Sudeste 67 Este 0 -- -- 74
2018-01-06 22:00:00 9.9 41 Este 74 Este 0 -- -- 68
2018-01-06 21:00:00 9.6 40 Este 60 Este 0 -- -- 67
2018-01-06 20:00:00 9.1 27 Este 40 Este 0 -- -- 69
2018-01-06 19:00:00 8.5 19 Este 34 Este 0 -- -- 75
2018-01-06 18:00:00 8.6 17 Este 37 Este 0 -- -- 75
2018-01-06 17:00:00 8.6 21 Este 35 Este 0 -- -- 77
2018-01-06 16:00:00 8.5 24 Este 35 Este 0 -- -- 79
2018-01-06 15:00:00 8.6 27 Este 36 Este 0 -- -- 76
2018-01-06 14:00:00 8.6 19 Sudeste 27 Sudeste 0 -- -- 76
2018-01-06 13:00:00 8.6 8 Este 22 Sudeste 0 -- -- 74
2018-01-06 12:00:00 8.1 12 Sudeste 16 Este 0 -- -- 75
2018-01-06 11:00:00 7.4 12 Este 16 Sudeste 0 -- -- 80
2018-01-06 10:00:00 7.2 11 Sudeste 18 Sudeste 0 -- -- 78
2018-01-06 09:00:00 6.8 12 Este 25 Este 0 -- -- 80
2018-01-06 08:00:00 6.9 18 Este 28 Este 0 -- -- 80
2018-01-06 07:00:00 6.8 18 Este 27 Este 0 -- -- 82
2018-01-06 06:00:00 5.5 6 Sudeste 12 Este 0 -- -- 88
2018-01-06 05:00:00 6.1 8 Este 12 Este 0 -- -- 86
2018-01-06 04:00:00 6.1 6 Este 7 Sudeste 0 -- -- 88
2018-01-06 03:00:00 6 5 Nordeste 12 Norte 0 -- -- 90
2018-01-06 02:00:00 6.4 7 Norte 9 Norte 0 -- -- 89
2018-01-06 01:00:00 6.6 9 Norte 12 Norte 0 -- -- 89
2018-01-06 00:00:00 6.8 5 Norte 12 Norte 0 -- -- 87
2018-01-05 23:00:00 7.1 5 Norte 10 Norte 0 -- -- 85
2018-01-05 22:00:00 7.2 6 Norte 9 Norte 0 -- -- 84
2018-01-05 21:00:00 7.7 5 Norte 8 Nordeste 0 -- -- 79
2018-01-05 20:00:00 7.7 5 Norte 8 Norte 0 -- -- 79
2018-01-05 19:00:00 7.7 8 Norte 10 Norte 0 -- -- 79
2018-01-05 18:00:00 9.4 2 Norte 13 Oeste 0 -- -- 70
2018-01-05 17:00:00 10.5 11 Oeste 21 Oeste 0 -- -- 65
2018-01-05 16:00:00 11.5 12 Oeste 27 Oeste 0 -- -- 63
2018-01-05 15:00:00 11.8 17 Oeste 28 Oeste 0 -- -- 61
2018-01-05 14:00:00 10.9 13 Oeste 26 Oeste 0 -- -- 68
2018-01-05 13:00:00 9.9 12 Noroeste 18 Noroeste 0 -- -- 73
2018-01-05 12:00:00 9.7 8 Noroeste 18 Oeste 0 -- -- 75
2018-01-05 11:00:00 8.8 9 Noroeste 21 Noroeste 0 -- -- 80
2018-01-05 10:00:00 7.1 11 Noroeste 18 Noroeste 0 -- -- 86
2018-01-05 09:00:00 5.1 5 Norte 9 Norte 0 -- -- 94
2018-01-05 08:00:00 3.6 6 Norte 11 Norte 0 -- -- 92
2018-01-05 07:00:00 2.9 9 Norte 12 Norte 0 -- -- 93
2018-01-05 06:00:00 3.5 7 Norte 12 Norte 0 -- -- 92
2018-01-05 05:00:00 3.7 8 Norte 12 Norte 0 -- -- 92
2018-01-05 04:00:00 3.9 8 Norte 11 Norte 0 -- -- 90
2018-01-05 03:00:00 4.9 6 Norte 9 Norte 0 -- -- 88
2018-01-05 02:00:00 5.2 6 Norte 14 Noroeste 0 -- -- 90
2018-01-05 01:00:00 7.7 10 Noroeste 13 Noroeste 0 -- -- 85
2018-01-05 00:00:00 7.9 3 Norte 21 Oeste 0 -- -- 83
2018-01-04 23:00:00 7.8 13 Noroeste 19 Oeste 0 -- -- 89
2018-01-04 22:00:00 8.8 13 Noroeste 19 Noroeste 0 -- -- 84
2018-01-04 21:00:00 9.9 12 Oeste 22 Oeste 0 -- -- 80
2018-01-04 20:00:00 10.7 13 Oeste 27 Noroeste 0 -- -- 77
2018-01-04 19:00:00 10.9 7 Norte 29 Oeste 0 -- -- 76
2018-01-04 18:00:00 12 14 Oeste 29 Oeste 0 -- -- 71
2018-01-04 17:00:00 13.6 16 Oeste 36 Oeste 0 -- -- 63
2018-01-04 16:00:00 15 23 Oeste 42 Oeste 0 -- -- 59
2018-01-04 15:00:00 15.4 23 Oeste 37 Oeste 0 -- -- 61
2018-01-04 14:00:00 15.1 21 Oeste 38 Oeste 0 -- -- 65
2018-01-04 13:00:00 14.1 12 Noroeste 25 Oeste 0 -- -- 70
2018-01-04 12:00:00 12.6 16 Noroeste 26 Oeste 0 -- -- 73
2018-01-04 11:00:00 12.1 14 Noroeste 22 Oeste 0 -- -- 76
2018-01-04 10:00:00 11.3 11 Noroeste 17 Noroeste 0 -- -- 78
2018-01-04 09:00:00 9.8 12 Noroeste 21 Noroeste 0 -- -- 82
2018-01-04 08:00:00 9.3 15 Noroeste 24 Noroeste 0 -- -- 85
2018-01-04 07:00:00 9.5 14 Noroeste 28 Noroeste 0 -- -- 84
2018-01-04 06:00:00 10.5 19 Noroeste 26 Noroeste 0 -- -- 80
2018-01-04 05:00:00 11.1 16 Noroeste 27 Noroeste 0 -- -- 77
2018-01-04 04:00:00 10.3 18 Noroeste 24 Noroeste 0 -- -- 82
2018-01-04 03:00:00 10.1 13 Oeste 23 Oeste 0 -- -- 85
2018-01-04 02:00:00 10.8 13 Noroeste 22 Noroeste 0 -- -- 84
2018-01-04 01:00:00 10.8 15 Noroeste 23 Noroeste 0 -- -- 85
2018-01-04 00:00:00 10.7 17 Noroeste 21 Noroeste 0 -- -- 85
2018-01-03 23:00:00 11.3 15 Noroeste 27 Noroeste 0 -- -- 82
2018-01-03 22:00:00 11.9 14 Noroeste 26 Noroeste 0 -- -- 80
2018-01-03 21:00:00 11.1 10 Noroeste 15 Noroeste 0 -- -- 85
2018-01-03 20:00:00 11.4 11 Oeste 37 Oeste 0 -- -- 84
2018-01-03 19:00:00 12.1 22 Oeste 43 Oeste 0 -- -- 80
2018-01-03 18:00:00 12.8 20 Oeste 44 Oeste 0 -- -- 66
2018-01-03 17:00:00 15.4 31 Oeste 48 Oeste 0 -- -- 46
2018-01-03 16:00:00 16.6 24 Oeste 42 Oeste 0 -- -- 44
2018-01-03 15:00:00 16.6 27 Oeste 40 Oeste 0 -- -- 45
2018-01-03 14:00:00 16.4 17 Oeste 35 Oeste 0 -- -- 56
2018-01-03 13:00:00 14.6 21 Oeste 32 Oeste 0 -- -- 69
2018-01-03 12:00:00 12.6 14 Noroeste 21 Noroeste 0 -- -- 80
2018-01-03 11:00:00 10.8 12 Noroeste 17 Oeste 0 -- -- 85
2018-01-03 10:00:00 8.3 2 Norte 8 Norte 0 -- -- 94
2018-01-03 09:00:00 4.6 0 Calma 7 Oeste 0 -- -- 96
2018-01-03 08:00:00 5.7 3 Este 15 Oeste 0 -- -- 91
2018-01-03 07:00:00 8.4 6 Oeste 14 Noroeste 0 -- -- 88
2018-01-03 06:00:00 7.7 7 Oeste 14 Noroeste 0 -- -- 92
2018-01-03 05:00:00 5.7 8 Noroeste 14 Norte 0 -- -- 98
2018-01-03 04:00:00 4.7 10 Norte 13 Norte 0 -- -- 96
2018-01-03 03:00:00 6.3 0 Calma 14 Oeste 0 -- -- 92
2018-01-03 02:00:00 7.4 10 Noroeste 20 Noroeste 0 -- -- 91
2018-01-03 01:00:00 8.9 17 Noroeste 28 Noroeste 0 -- -- 89
2018-01-03 00:00:00 9 21 Noroeste 27 Noroeste 0 -- -- 89
2018-01-02 23:00:00 8.4 14 Noroeste 20 Noroeste 0 -- -- 91
2018-01-02 22:00:00 7.7 10 Noroeste 19 Noroeste 0 -- -- 95
2018-01-02 21:00:00 8.2 18 Noroeste 22 Noroeste 0 -- -- 95
2018-01-02 20:00:00 8.3 6 Norte 20 Oeste 0 -- -- 92
2018-01-02 19:00:00 9.2 13 Noroeste 29 Noroeste 0 -- -- 90
2018-01-02 18:00:00 10 15 Noroeste 25 Oeste 0 -- -- 87
2018-01-02 17:00:00 12 17 Oeste 33 Oeste 0 -- -- 78
2018-01-02 16:00:00 12.6 22 Oeste 34 Oeste 0 -- -- 72
2018-01-02 15:00:00 12.3 22 Oeste 39 Oeste 0 -- -- 74
2018-01-02 14:00:00 11.4 14 Noroeste 24 Oeste 0 -- -- 74
2018-01-02 13:00:00 9.9 13 Oeste 22 Oeste 0 -- -- 75
2018-01-02 12:00:00 9.1 12 Oeste 21 Oeste 0 -- -- 78
2018-01-02 11:00:00 7.8 9 Noroeste 15 Noroeste 0 -- -- 76
2018-01-02 10:00:00 6.4 7 Noroeste 18 Noroeste 0 -- -- 78
2018-01-02 09:00:00 4 14 Noroeste 21 Oeste 0 -- -- 83
2018-01-02 08:00:00 4 16 Noroeste 21 Noroeste 0 -- -- 79
2018-01-02 07:00:00 2.1 8 Oeste 10 Oeste 0 -- -- 88
2018-01-02 06:00:00 2.3 5 Noroeste 13 Noroeste 0 -- -- 86
2018-01-02 05:00:00 4.2 12 Noroeste 21 Noroeste 0 -- -- 76
2018-01-02 04:00:00 3.8 9 Noroeste 15 Noroeste 0 -- -- 82
2018-01-02 03:00:00 4 12 Noroeste 19 Noroeste 0 -- -- 86
2018-01-02 02:00:00 5.9 12 Noroeste 23 Noroeste 0 -- -- 76
2018-01-02 01:00:00 4.9 15 Noroeste 24 Noroeste 0 -- -- 84
2018-01-02 00:00:00 3.5 10 Noroeste 14 Norte 0 -- -- 87
2018-01-01 23:00:00 2.8 13 Norte 19 Oeste 0 -- -- 94
2018-01-01 22:00:00 3.6 12 Oeste 29 Noroeste 0 -- -- 90
2018-01-01 21:00:00 3.9 13 Noroeste 22 Noroeste 0 -- -- 93
2018-01-01 20:00:00 4.6 9 Noroeste 15 Noroeste 0.2 -- -- 93
2018-01-01 19:00:00 4.6 8 Noroeste 22 Oeste 1.2 -- -- 93
2018-01-01 18:00:00 6 13 Noroeste 22 Oeste 0 -- -- 80
2018-01-01 17:00:00 6.4 8 Noroeste 27 Noroeste 0 -- -- 72
2018-01-01 16:00:00 6.6 14 Noroeste 29 Oeste 0 -- -- 71
2018-01-01 15:00:00 6.7 21 Oeste 36 Oeste 0 -- -- 69
2018-01-01 14:00:00 7.3 21 Oeste 37 Oeste 0 -- -- 66
2018-01-01 13:00:00 6 18 Noroeste 28 Oeste 0 -- -- 70
2018-01-01 12:00:00 5.6 16 Oeste 28 Oeste 0 -- -- 69
2018-01-01 11:00:00 5.7 9 Oeste 19 Oeste 0 -- -- 69
2018-01-01 10:00:00 4 6 Oeste 20 Noroeste 0 -- -- 73
2018-01-01 09:00:00 2.3 10 Noroeste 22 Oeste 0 -- -- 78
2018-01-01 08:00:00 1.9 14 Noroeste 19 Noroeste 0 -- -- 80
2018-01-01 07:00:00 2.1 11 Noroeste 19 Noroeste 0 -- -- 80
2018-01-01 06:00:00 2.9 16 Noroeste 24 Noroeste 0 -- -- 76
2018-01-01 05:00:00 3.7 17 Noroeste 25 Oeste 0 -- -- 74
2018-01-01 04:00:00 3.9 18 Noroeste 26 Noroeste 0 -- -- 75
2018-01-01 03:00:00 3.8 12 Noroeste 34 Noroeste 0 -- -- 74
2018-01-01 02:00:00 4.3 14 Noroeste 32 Oeste 0 -- -- 72
2018-01-01 01:00:00 4.8 18 Noroeste 42 Oeste 0 -- -- 72
2018-01-01 00:00:00 4.9 22 Noroeste 33 Oeste 0 -- -- 81
2017-12-31 23:00:00 5.1 17 Noroeste 40 Noroeste 0 -- -- 88
2017-12-31 22:00:00 5.9 18 Noroeste 35 Noroeste 0.8 -- -- 95
2017-12-31 21:00:00 6.8 14 Noroeste 22 Noroeste 0 -- -- 88
2017-12-31 20:00:00 7.1 16 Noroeste 24 Noroeste 0 -- -- 87
2017-12-31 19:00:00 6 14 Noroeste 23 Oeste 0 -- -- 91
2017-12-31 18:00:00 6.6 14 Noroeste 22 Noroeste 0 -- -- 88
2017-12-31 17:00:00 7 12 Noroeste 24 Noroeste 0 -- -- 86
2017-12-31 16:00:00 8.5 11 Oeste 17 Noroeste 0 -- -- 78
2017-12-31 15:00:00 8.5 11 Noroeste 19 Oeste 0 -- -- 79
2017-12-31 14:00:00 8.7 9 Noroeste 14 Noroeste 0 -- -- 80
2017-12-31 13:00:00 9.3 0 Calma 6 Sudoeste 0 -- -- 83
2017-12-31 12:00:00 7.4 4 Noroeste 10 Oeste 0 -- -- 88
2017-12-31 11:00:00 6.7 0 Calma 11 Noroeste 0 -- -- 93
2017-12-31 10:00:00 4.2 6 Norte 11 Noroeste 0 -- -- 97
2017-12-31 09:00:00 2.9 8 Norte 9 Norte 0 -- -- 97
2017-12-31 08:00:00 2.8 5 Norte 10 Norte 0 -- -- 98
2017-12-31 07:00:00 2.2 8 Norte 9 Norte 0 -- -- 97
2017-12-31 06:00:00 2.2 5 Norte 10 Noroeste 0 -- -- 98
2017-12-31 05:00:00 2.6 6 Norte 12 Norte 0 -- -- 97
2017-12-31 04:00:00 3.4 4 Noroeste 12 Norte 0 -- -- 97
2017-12-31 03:00:00 2.9 10 Norte 15 Norte 0 -- -- 97
2017-12-31 02:00:00 2.9 9 Norte 11 Norte 0 -- -- 97
2017-12-31 01:00:00 3.4 7 Norte 12 Norte 0 -- -- 95